sensor_id;sensor_type;location;lat;lon;timestamp;P1;durP1;ratioP1;P2;durP2;ratioP2
67768;SDS011;54569;52.018;5.584;2022-09-09T00:01:52;2.85;;;1.90;;
67768;SDS011;54569;52.018;5.584;2022-09-09T00:04:30;2.03;;;1.92;;
67768;SDS011;54569;52.018;5.584;2022-09-09T00:09:23;2.83;;;2.05;;
67768;SDS011;54569;52.018;5.584;2022-09-09T00:11:54;2.40;;;2.20;;
67768;SDS011;54569;52.018;5.584;2022-09-09T00:20:00;2.40;;;2.05;;
67768;SDS011;54569;52.018;5.584;2022-09-09T00:22:27;2.63;;;2.42;;
67768;SDS011;54569;52.018;5.584;2022-09-09T00:24:58;3.95;;;2.35;;
67768;SDS011;54569;52.018;5.584;2022-09-09T00:27:44;4.57;;;2.70;;
67768;SDS011;54569;52.018;5.584;2022-09-09T00:30:17;4.40;;;2.25;;
67768;SDS011;54569;52.018;5.584;2022-09-09T00:32:47;2.90;;;2.70;;
67768;SDS011;54569;52.018;5.584;2022-09-09T00:35:22;3.70;;;3.17;;
67768;SDS011;54569;52.018;5.584;2022-09-09T00:37:56;3.53;;;3.17;;
67768;SDS011;54569;52.018;5.584;2022-09-09T00:40:32;3.40;;;2.55;;
67768;SDS011;54569;52.018;5.584;2022-09-09T00:43:04;3.30;;;3.00;;
67768;SDS011;54569;52.018;5.584;2022-09-09T00:48:23;3.05;;;2.80;;
67768;SDS011;54569;52.018;5.584;2022-09-09T00:51:03;3.85;;;3.08;;
67768;SDS011;54569;52.018;5.584;2022-09-09T00:54:03;2.92;;;2.45;;
67768;SDS011;54569;52.018;5.584;2022-09-09T00:56:48;3.17;;;2.90;;
67768;SDS011;54569;52.018;5.584;2022-09-09T01:04:47;3.15;;;2.60;;
67768;SDS011;54569;52.018;5.584;2022-09-09T01:07:16;4.30;;;2.53;;
67768;SDS011;54569;52.018;5.584;2022-09-09T01:20:26;2.97;;;2.20;;
67768;SDS011;54569;52.018;5.584;2022-09-09T01:28:17;6.57;;;2.40;;
67768;SDS011;54569;52.018;5.584;2022-09-09T01:30:49;2.77;;;2.43;;
67768;SDS011;54569;52.018;5.584;2022-09-09T01:33:21;3.85;;;3.38;;
67768;SDS011;54569;52.018;5.584;2022-09-09T01:36:07;6.25;;;3.45;;
67768;SDS011;54569;52.018;5.584;2022-09-09T01:38:55;4.00;;;2.88;;
67768;SDS011;54569;52.018;5.584;2022-09-09T01:41:21;3.50;;;2.88;;
67768;SDS011;54569;52.018;5.584;2022-09-09T01:43:55;6.03;;;3.30;;
67768;SDS011;54569;52.018;5.584;2022-09-09T01:46:22;5.78;;;2.85;;
67768;SDS011;54569;52.018;5.584;2022-09-09T01:48:50;5.30;;;3.20;;
67768;SDS011;54569;52.018;5.584;2022-09-09T01:51:18;4.35;;;3.35;;
67768;SDS011;54569;52.018;5.584;2022-09-09T01:53:45;5.32;;;3.03;;
67768;SDS011;54569;52.018;5.584;2022-09-09T02:01:41;3.05;;;2.67;;
67768;SDS011;54569;52.018;5.584;2022-09-09T02:04:44;3.05;;;2.72;;
67768;SDS011;54569;52.018;5.584;2022-09-09T02:10:20;5.13;;;3.00;;
67768;SDS011;54569;52.018;5.584;2022-09-09T02:13:24;2.92;;;2.63;;
67768;SDS011;54569;52.018;5.584;2022-09-09T02:16:12;3.20;;;2.95;;
67768;SDS011;54569;52.018;5.584;2022-09-09T02:18:53;2.85;;;2.33;;
67768;SDS011;54569;52.018;5.584;2022-09-09T02:21:59;3.15;;;2.72;;
67768;SDS011;54569;52.018;5.584;2022-09-09T02:24:26;3.72;;;2.60;;
67768;SDS011;54569;52.018;5.584;2022-09-09T02:27:07;3.05;;;2.42;;
67768;SDS011;54569;52.018;5.584;2022-09-09T02:29:36;3.15;;;2.30;;
67768;SDS011;54569;52.018;5.584;2022-09-09T02:32:09;4.50;;;2.30;;
67768;SDS011;54569;52.018;5.584;2022-09-09T02:34:40;2.78;;;2.30;;
67768;SDS011;54569;52.018;5.584;2022-09-09T02:37:13;7.53;;;2.70;;
67768;SDS011;54569;52.018;5.584;2022-09-09T02:39:46;3.90;;;2.80;;
67768;SDS011;54569;52.018;5.584;2022-09-09T02:42:15;4.75;;;2.45;;
67768;SDS011;54569;52.018;5.584;2022-09-09T02:44:42;2.60;;;2.40;;
67768;SDS011;54569;52.018;5.584;2022-09-09T02:50:23;2.38;;;2.17;;
67768;SDS011;54569;52.018;5.584;2022-09-09T02:55:29;5.28;;;2.53;;
67768;SDS011;54569;52.018;5.584;2022-09-09T02:58:07;2.78;;;2.58;;
67768;SDS011;54569;52.018;5.584;2022-09-09T03:00:36;3.20;;;2.35;;
67768;SDS011;54569;52.018;5.584;2022-09-09T03:03:04;3.97;;;2.78;;
67768;SDS011;54569;52.018;5.584;2022-09-09T03:05:33;3.38;;;2.67;;
67768;SDS011;54569;52.018;5.584;2022-09-09T03:07:59;3.38;;;3.08;;
67768;SDS011;54569;52.018;5.584;2022-09-09T03:10:25;4.43;;;2.50;;
67768;SDS011;54569;52.018;5.584;2022-09-09T03:12:50;3.30;;;2.83;;
67768;SDS011;54569;52.018;5.584;2022-09-09T03:15:17;3.60;;;2.38;;
67768;SDS011;54569;52.018;5.584;2022-09-09T03:17:43;4.43;;;2.60;;
67768;SDS011;54569;52.018;5.584;2022-09-09T03:20:09;3.03;;;2.72;;
67768;SDS011;54569;52.018;5.584;2022-09-09T03:22:37;3.13;;;2.53;;
67768;SDS011;54569;52.018;5.584;2022-09-09T03:25:02;3.22;;;2.92;;
67768;SDS011;54569;52.018;5.584;2022-09-09T03:27:29;3.78;;;2.85;;
67768;SDS011;54569;52.018;5.584;2022-09-09T03:29:55;4.80;;;2.95;;
67768;SDS011;54569;52.018;5.584;2022-09-09T03:32:23;5.15;;;3.28;;
67768;SDS011;54569;52.018;5.584;2022-09-09T03:34:52;4.10;;;3.00;;
67768;SDS011;54569;52.018;5.584;2022-09-09T03:37:18;4.63;;;3.28;;
67768;SDS011;54569;52.018;5.584;2022-09-09T03:39:45;5.18;;;3.67;;
67768;SDS011;54569;52.018;5.584;2022-09-09T03:42:13;4.13;;;3.33;;
67768;SDS011;54569;52.018;5.584;2022-09-09T03:44:44;3.30;;;3.10;;
67768;SDS011;54569;52.018;5.584;2022-09-09T03:47:16;4.43;;;3.22;;
67768;SDS011;54569;52.018;5.584;2022-09-09T03:49:43;4.85;;;3.17;;
67768;SDS011;54569;52.018;5.584;2022-09-09T03:52:09;4.95;;;3.40;;
67768;SDS011;54569;52.018;5.584;2022-09-09T03:54:35;4.95;;;3.30;;
67768;SDS011;54569;52.018;5.584;2022-09-09T03:57:01;3.80;;;3.50;;
67768;SDS011;54569;52.018;5.584;2022-09-09T03:59:27;4.50;;;3.40;;
67768;SDS011;54569;52.018;5.584;2022-09-09T04:01:53;3.80;;;3.47;;
67768;SDS011;54569;52.018;5.584;2022-09-09T04:04:20;6.38;;;3.53;;
67768;SDS011;54569;52.018;5.584;2022-09-09T04:06:46;5.53;;;3.20;;
67768;SDS011;54569;52.018;5.584;2022-09-09T04:09:13;4.45;;;3.22;;
67768;SDS011;54569;52.018;5.584;2022-09-09T04:11:41;3.38;;;3.08;;
67768;SDS011;54569;52.018;5.584;2022-09-09T04:14:07;6.05;;;3.17;;
67768;SDS011;54569;52.018;5.584;2022-09-09T04:16:34;4.32;;;3.15;;
67768;SDS011;54569;52.018;5.584;2022-09-09T04:19:02;5.05;;;3.38;;
67768;SDS011;54569;52.018;5.584;2022-09-09T04:21:29;4.05;;;3.10;;
67768;SDS011;54569;52.018;5.584;2022-09-09T04:23:56;5.40;;;3.22;;
67768;SDS011;54569;52.018;5.584;2022-09-09T04:26:23;4.32;;;3.20;;
67768;SDS011;54569;52.018;5.584;2022-09-09T04:28:49;6.25;;;3.10;;
67768;SDS011;54569;52.018;5.584;2022-09-09T04:31:18;4.30;;;3.42;;
67768;SDS011;54569;52.018;5.584;2022-09-09T04:33:48;5.88;;;3.45;;
67768;SDS011;54569;52.018;5.584;2022-09-09T04:36:15;7.47;;;3.20;;
67768;SDS011;54569;52.018;5.584;2022-09-09T04:38:41;4.82;;;2.88;;
67768;SDS011;54569;52.018;5.584;2022-09-09T04:41:09;3.30;;;3.00;;
67768;SDS011;54569;52.018;5.584;2022-09-09T04:43:38;4.05;;;3.20;;
67768;SDS011;54569;52.018;5.584;2022-09-09T04:46:06;5.88;;;3.05;;
67768;SDS011;54569;52.018;5.584;2022-09-09T04:48:32;4.30;;;3.30;;
67768;SDS011;54569;52.018;5.584;2022-09-09T04:51:06;4.95;;;3.05;;
67768;SDS011;54569;52.018;5.584;2022-09-09T04:53:35;4.13;;;2.83;;
67768;SDS011;54569;52.018;5.584;2022-09-09T04:56:05;3.78;;;2.40;;
67768;SDS011;54569;52.018;5.584;2022-09-09T04:58:39;6.05;;;3.03;;
67768;SDS011;54569;52.018;5.584;2022-09-09T05:01:12;5.22;;;2.63;;
67768;SDS011;54569;52.018;5.584;2022-09-09T05:03:40;3.10;;;2.88;;
67768;SDS011;54569;52.018;5.584;2022-09-09T05:06:09;8.02;;;2.97;;
67768;SDS011;54569;52.018;5.584;2022-09-09T05:08:37;4.60;;;2.45;;
67768;SDS011;54569;52.018;5.584;2022-09-09T05:13:44;5.25;;;2.85;;
67768;SDS011;54569;52.018;5.584;2022-09-09T05:16:11;5.85;;;3.00;;
67768;SDS011;54569;52.018;5.584;2022-09-09T05:18:38;7.45;;;3.20;;
67768;SDS011;54569;52.018;5.584;2022-09-09T05:21:05;6.40;;;3.00;;
67768;SDS011;54569;52.018;5.584;2022-09-09T05:23:32;4.03;;;2.55;;
67768;SDS011;54569;52.018;5.584;2022-09-09T05:25:59;4.20;;;2.65;;
67768;SDS011;54569;52.018;5.584;2022-09-09T05:28:25;3.95;;;2.60;;
67768;SDS011;54569;52.018;5.584;2022-09-09T05:30:59;4.03;;;2.38;;
67768;SDS011;54569;52.018;5.584;2022-09-09T05:33:36;4.32;;;2.47;;
67768;SDS011;54569;52.018;5.584;2022-09-09T05:36:16;4.72;;;2.15;;
67768;SDS011;54569;52.018;5.584;2022-09-09T05:38:45;5.50;;;2.67;;
67768;SDS011;54569;52.018;5.584;2022-09-09T05:41:12;6.05;;;2.60;;
67768;SDS011;54569;52.018;5.584;2022-09-09T05:43:41;4.55;;;2.35;;
67768;SDS011;54569;52.018;5.584;2022-09-09T05:46:10;4.95;;;2.28;;
67768;SDS011;54569;52.018;5.584;2022-09-09T05:48:39;5.05;;;2.30;;
67768;SDS011;54569;52.018;5.584;2022-09-09T05:51:07;4.22;;;2.40;;
67768;SDS011;54569;52.018;5.584;2022-09-09T05:53:36;4.75;;;2.70;;
67768;SDS011;54569;52.018;5.584;2022-09-09T05:56:10;6.57;;;2.60;;
67768;SDS011;54569;52.018;5.584;2022-09-09T05:58:39;5.22;;;2.45;;
67768;SDS011;54569;52.018;5.584;2022-09-09T06:01:10;4.47;;;2.28;;
67768;SDS011;54569;52.018;5.584;2022-09-09T06:03:38;6.03;;;2.50;;
67768;SDS011;54569;52.018;5.584;2022-09-09T06:06:06;7.63;;;2.60;;
67768;SDS011;54569;52.018;5.584;2022-09-09T06:08:33;5.45;;;2.25;;
67768;SDS011;54569;52.018;5.584;2022-09-09T06:11:03;9.25;;;2.42;;
67768;SDS011;54569;52.018;5.584;2022-09-09T06:13:30;6.18;;;2.85;;
67768;SDS011;54569;52.018;5.584;2022-09-09T06:15:56;4.45;;;1.75;;
67768;SDS011;54569;52.018;5.584;2022-09-09T06:18:24;6.70;;;2.30;;
67768;SDS011;54569;52.018;5.584;2022-09-09T06:20:58;5.30;;;2.22;;
67768;SDS011;54569;52.018;5.584;2022-09-09T06:23:27;4.88;;;2.20;;
67768;SDS011;54569;52.018;5.584;2022-09-09T06:28:46;7.40;;;2.60;;
67768;SDS011;54569;52.018;5.584;2022-09-09T06:31:13;7.20;;;2.85;;
67768;SDS011;54569;52.018;5.584;2022-09-09T06:33:42;6.18;;;2.50;;
67768;SDS011;54569;52.018;5.584;2022-09-09T06:36:15;6.70;;;2.38;;
67768;SDS011;54569;52.018;5.584;2022-09-09T06:38:43;5.68;;;2.38;;
67768;SDS011;54569;52.018;5.584;2022-09-09T06:41:12;4.50;;;2.60;;
67768;SDS011;54569;52.018;5.584;2022-09-09T06:43:41;5.22;;;2.33;;
67768;SDS011;54569;52.018;5.584;2022-09-09T06:46:11;9.85;;;2.85;;
67768;SDS011;54569;52.018;5.584;2022-09-09T06:48:39;6.55;;;2.35;;
67768;SDS011;54569;52.018;5.584;2022-09-09T06:51:07;5.72;;;2.58;;
67768;SDS011;54569;52.018;5.584;2022-09-09T06:53:41;6.97;;;2.60;;
67768;SDS011;54569;52.018;5.584;2022-09-09T06:56:19;6.22;;;2.20;;
67768;SDS011;54569;52.018;5.584;2022-09-09T06:58:48;6.90;;;2.47;;
67768;SDS011;54569;52.018;5.584;2022-09-09T07:01:25;8.03;;;2.53;;
67768;SDS011;54569;52.018;5.584;2022-09-09T07:03:56;5.70;;;2.80;;
67768;SDS011;54569;52.018;5.584;2022-09-09T07:06:25;2.42;;;2.22;;
67768;SDS011;54569;52.018;5.584;2022-09-09T07:08:53;7.32;;;2.70;;
67768;SDS011;54569;52.018;5.584;2022-09-09T07:11:24;7.68;;;2.88;;
67768;SDS011;54569;52.018;5.584;2022-09-09T07:13:59;7.28;;;2.33;;
67768;SDS011;54569;52.018;5.584;2022-09-09T07:16:26;6.28;;;2.35;;
67768;SDS011;54569;52.018;5.584;2022-09-09T07:18:55;9.30;;;2.90;;
67768;SDS011;54569;52.018;5.584;2022-09-09T07:21:23;5.40;;;2.47;;
67768;SDS011;54569;52.018;5.584;2022-09-09T07:23:51;6.57;;;2.40;;
67768;SDS011;54569;52.018;5.584;2022-09-09T07:26:18;7.07;;;1.90;;
67768;SDS011;54569;52.018;5.584;2022-09-09T07:28:46;8.48;;;2.60;;
67768;SDS011;54569;52.018;5.584;2022-09-09T07:31:13;4.75;;;2.63;;
67768;SDS011;54569;52.018;5.584;2022-09-09T07:33:49;7.60;;;2.65;;
67768;SDS011;54569;52.018;5.584;2022-09-09T07:36:16;8.32;;;2.42;;
67768;SDS011;54569;52.018;5.584;2022-09-09T07:38:48;5.32;;;2.20;;
67768;SDS011;54569;52.018;5.584;2022-09-09T07:41:20;8.30;;;2.22;;
67768;SDS011;54569;52.018;5.584;2022-09-09T07:43:48;8.98;;;2.30;;
67768;SDS011;54569;52.018;5.584;2022-09-09T07:46:15;9.23;;;2.25;;
67768;SDS011;54569;52.018;5.584;2022-09-09T07:48:46;4.30;;;2.20;;
67768;SDS011;54569;52.018;5.584;2022-09-09T07:51:25;7.63;;;2.20;;
67768;SDS011;54569;52.018;5.584;2022-09-09T07:53:53;5.15;;;2.20;;
67768;SDS011;54569;52.018;5.584;2022-09-09T07:56:21;4.90;;;1.95;;
67768;SDS011;54569;52.018;5.584;2022-09-09T07:58:49;8.20;;;2.33;;
67768;SDS011;54569;52.018;5.584;2022-09-09T08:01:17;8.18;;;2.38;;
67768;SDS011;54569;52.018;5.584;2022-09-09T08:03:46;7.35;;;1.83;;
67768;SDS011;54569;52.018;5.584;2022-09-09T08:06:17;7.00;;;2.40;;
67768;SDS011;54569;52.018;5.584;2022-09-09T08:08:43;9.25;;;2.08;;
67768;SDS011;54569;52.018;5.584;2022-09-09T08:11:13;5.63;;;1.80;;
67768;SDS011;54569;52.018;5.584;2022-09-09T08:13:40;12.25;;;2.33;;
67768;SDS011;54569;52.018;5.584;2022-09-09T08:16:11;7.00;;;2.38;;
67768;SDS011;54569;52.018;5.584;2022-09-09T08:18:42;9.32;;;2.95;;
67768;SDS011;54569;52.018;5.584;2022-09-09T08:21:13;2.72;;;1.50;;
67768;SDS011;54569;52.018;5.584;2022-09-09T08:26:15;5.18;;;1.90;;
67768;SDS011;54569;52.018;5.584;2022-09-09T08:28:42;6.15;;;1.73;;
67768;SDS011;54569;52.018;5.584;2022-09-09T08:31:13;5.32;;;1.85;;
67768;SDS011;54569;52.018;5.584;2022-09-09T08:33:42;8.90;;;1.98;;
67768;SDS011;54569;52.018;5.584;2022-09-09T08:36:11;4.78;;;1.70;;
67768;SDS011;54569;52.018;5.584;2022-09-09T08:38:42;6.35;;;1.90;;
67768;SDS011;54569;52.018;5.584;2022-09-09T08:44:00;5.18;;;1.45;;
67768;SDS011;54569;52.018;5.584;2022-09-09T08:49:26;5.07;;;1.95;;
67768;SDS011;54569;52.018;5.584;2022-09-09T08:52:18;3.13;;;1.40;;
67768;SDS011;54569;52.018;5.584;2022-09-09T08:54:48;5.03;;;2.28;;
67768;SDS011;54569;52.018;5.584;2022-09-09T08:57:19;5.57;;;1.85;;
67768;SDS011;54569;52.018;5.584;2022-09-09T08:59:52;5.15;;;1.73;;
67768;SDS011;54569;52.018;5.584;2022-09-09T09:02:23;5.80;;;1.73;;
67768;SDS011;54569;52.018;5.584;2022-09-09T09:10:50;7.97;;;2.05;;
67768;SDS011;54569;52.018;5.584;2022-09-09T09:15:59;6.32;;;2.05;;
67768;SDS011;54569;52.018;5.584;2022-09-09T09:18:30;3.65;;;1.60;;
67768;SDS011;54569;52.018;5.584;2022-09-09T09:23:30;3.67;;;1.58;;
67768;SDS011;54569;52.018;5.584;2022-09-09T09:26:06;8.63;;;2.05;;
67768;SDS011;54569;52.018;5.584;2022-09-09T09:28:35;4.88;;;1.50;;
67768;SDS011;54569;52.018;5.584;2022-09-09T09:31:10;5.05;;;1.80;;
67768;SDS011;54569;52.018;5.584;2022-09-09T09:33:44;6.97;;;2.13;;
67768;SDS011;54569;52.018;5.584;2022-09-09T09:36:16;5.65;;;1.63;;
67768;SDS011;54569;52.018;5.584;2022-09-09T09:38:54;2.65;;;1.40;;
67768;SDS011;54569;52.018;5.584;2022-09-09T09:41:33;4.88;;;1.83;;
67768;SDS011;54569;52.018;5.584;2022-09-09T09:44:04;8.10;;;1.80;;
67768;SDS011;54569;52.018;5.584;2022-09-09T09:46:34;8.07;;;2.00;;
67768;SDS011;54569;52.018;5.584;2022-09-09T09:49:09;6.43;;;2.08;;
67768;SDS011;54569;52.018;5.584;2022-09-09T09:51:36;4.65;;;1.80;;
67768;SDS011;54569;52.018;5.584;2022-09-09T09:57:16;3.72;;;1.73;;
67768;SDS011;54569;52.018;5.584;2022-09-09T09:59:45;5.88;;;2.30;;
67768;SDS011;54569;52.018;5.584;2022-09-09T10:02:21;7.72;;;1.77;;
67768;SDS011;54569;52.018;5.584;2022-09-09T10:05:00;5.80;;;1.77;;
67768;SDS011;54569;52.018;5.584;2022-09-09T10:07:29;5.30;;;2.10;;
67768;SDS011;54569;52.018;5.584;2022-09-09T10:09:55;7.32;;;2.10;;
67768;SDS011;54569;52.018;5.584;2022-09-09T10:15:35;4.97;;;1.77;;
67768;SDS011;54569;52.018;5.584;2022-09-09T10:18:20;6.55;;;1.77;;
67768;SDS011;54569;52.018;5.584;2022-09-09T10:29:30;4.55;;;1.85;;
67768;SDS011;54569;52.018;5.584;2022-09-09T10:40:32;6.07;;;1.50;;
67768;SDS011;54569;52.018;5.584;2022-09-09T10:56:54;5.95;;;1.67;;
67768;SDS011;54569;52.018;5.584;2022-09-09T10:59:24;5.50;;;2.22;;
67768;SDS011;54569;52.018;5.584;2022-09-09T11:02:05;6.00;;;2.35;;
67768;SDS011;54569;52.018;5.584;2022-09-09T11:07:48;3.42;;;1.98;;
67768;SDS011;54569;52.018;5.584;2022-09-09T11:13:30;4.00;;;1.90;;
67768;SDS011;54569;52.018;5.584;2022-09-09T11:16:05;5.65;;;2.53;;
67768;SDS011;54569;52.018;5.584;2022-09-09T11:18:38;4.55;;;2.00;;
67768;SDS011;54569;52.018;5.584;2022-09-09T11:21:07;5.60;;;2.10;;
67768;SDS011;54569;52.018;5.584;2022-09-09T11:23:43;4.80;;;2.60;;
67768;SDS011;54569;52.018;5.584;2022-09-09T11:26:17;7.47;;;2.30;;
67768;SDS011;54569;52.018;5.584;2022-09-09T11:44:37;5.78;;;2.22;;
67768;SDS011;54569;52.018;5.584;2022-09-09T11:47:03;5.25;;;2.08;;
67768;SDS011;54569;52.018;5.584;2022-09-09T11:49:41;7.97;;;1.73;;
67768;SDS011;54569;52.018;5.584;2022-09-09T11:52:50;4.30;;;1.80;;
67768;SDS011;54569;52.018;5.584;2022-09-09T11:55:09;3.75;;;1.95;;
67768;SDS011;54569;52.018;5.584;2022-09-09T11:57:37;7.18;;;2.00;;
67768;SDS011;54569;52.018;5.584;2022-09-09T12:00:04;7.60;;;1.80;;
67768;SDS011;54569;52.018;5.584;2022-09-09T12:02:37;5.07;;;1.60;;
67768;SDS011;54569;52.018;5.584;2022-09-09T12:05:15;3.92;;;1.65;;
67768;SDS011;54569;52.018;5.584;2022-09-09T12:10:30;6.40;;;1.58;;
67768;SDS011;54569;52.018;5.584;2022-09-09T12:13:34;4.63;;;1.75;;
67768;SDS011;54569;52.018;5.584;2022-09-09T12:15:53;4.53;;;2.15;;
67768;SDS011;54569;52.018;5.584;2022-09-09T12:18:39;5.60;;;2.10;;
67768;SDS011;54569;52.018;5.584;2022-09-09T12:24:11;3.97;;;2.08;;
67768;SDS011;54569;52.018;5.584;2022-09-09T12:26:45;4.85;;;2.10;;
67768;SDS011;54569;52.018;5.584;2022-09-09T12:37:41;4.53;;;1.92;;
67768;SDS011;54569;52.018;5.584;2022-09-09T12:40:19;5.70;;;1.90;;
67768;SDS011;54569;52.018;5.584;2022-09-09T12:42:45;5.05;;;2.17;;
67768;SDS011;54569;52.018;5.584;2022-09-09T12:45:18;2.95;;;1.77;;
67768;SDS011;54569;52.018;5.584;2022-09-09T12:47:47;6.72;;;2.10;;
67768;SDS011;54569;52.018;5.584;2022-09-09T12:50:37;4.72;;;1.98;;
67768;SDS011;54569;52.018;5.584;2022-09-09T12:56:08;3.73;;;1.80;;
67768;SDS011;54569;52.018;5.584;2022-09-09T12:58:45;4.07;;;1.70;;
67768;SDS011;54569;52.018;5.584;2022-09-09T13:01:22;4.75;;;1.60;;
67768;SDS011;54569;52.018;5.584;2022-09-09T13:04:00;3.70;;;1.73;;
67768;SDS011;54569;52.018;5.584;2022-09-09T13:06:30;5.78;;;1.88;;
67768;SDS011;54569;52.018;5.584;2022-09-09T13:08:58;3.80;;;1.52;;
67768;SDS011;54569;52.018;5.584;2022-09-09T13:11:27;5.30;;;1.73;;
67768;SDS011;54569;52.018;5.584;2022-09-09T13:13:57;3.13;;;1.70;;
67768;SDS011;54569;52.018;5.584;2022-09-09T13:16:27;3.85;;;1.80;;
67768;SDS011;54569;52.018;5.584;2022-09-09T13:18:56;6.20;;;1.90;;
67768;SDS011;54569;52.018;5.584;2022-09-09T13:21:39;1.98;;;1.40;;
67768;SDS011;54569;52.018;5.584;2022-09-09T13:24:06;4.05;;;1.80;;
67768;SDS011;54569;52.018;5.584;2022-09-09T13:26:55;4.37;;;2.10;;
67768;SDS011;54569;52.018;5.584;2022-09-09T13:29:22;3.58;;;1.77;;
67768;SDS011;54569;52.018;5.584;2022-09-09T13:31:48;4.43;;;2.15;;
67768;SDS011;54569;52.018;5.584;2022-09-09T13:34:30;4.75;;;1.83;;
67768;SDS011;54569;52.018;5.584;2022-09-09T13:37:04;3.55;;;1.83;;
67768;SDS011;54569;52.018;5.584;2022-09-09T13:39:35;3.17;;;1.42;;
67768;SDS011;54569;52.018;5.584;2022-09-09T13:42:02;6.45;;;2.00;;
67768;SDS011;54569;52.018;5.584;2022-09-09T13:44:34;3.90;;;1.90;;
67768;SDS011;54569;52.018;5.584;2022-09-09T13:47:22;2.10;;;1.73;;
67768;SDS011;54569;52.018;5.584;2022-09-09T13:52:56;3.80;;;1.65;;
67768;SDS011;54569;52.018;5.584;2022-09-09T13:55:24;5.43;;;1.95;;
67768;SDS011;54569;52.018;5.584;2022-09-09T14:00:17;4.32;;;1.98;;
67768;SDS011;54569;52.018;5.584;2022-09-09T14:02:43;3.67;;;1.65;;
67768;SDS011;54569;52.018;5.584;2022-09-09T14:05:09;2.47;;;1.48;;
67768;SDS011;54569;52.018;5.584;2022-09-09T14:07:36;4.68;;;1.25;;
67768;SDS011;54569;52.018;5.584;2022-09-09T14:10:05;3.67;;;1.70;;
67768;SDS011;54569;52.018;5.584;2022-09-09T14:12:32;3.60;;;1.60;;
67768;SDS011;54569;52.018;5.584;2022-09-09T14:14:58;3.80;;;1.48;;
67768;SDS011;54569;52.018;5.584;2022-09-09T14:17:25;2.65;;;1.30;;
67768;SDS011;54569;52.018;5.584;2022-09-09T14:19:54;3.33;;;1.58;;
67768;SDS011;54569;52.018;5.584;2022-09-09T14:22:21;3.97;;;1.55;;
67768;SDS011;54569;52.018;5.584;2022-09-09T14:24:47;6.05;;;2.10;;
67768;SDS011;54569;52.018;5.584;2022-09-09T14:27:13;3.58;;;1.73;;
67768;SDS011;54569;52.018;5.584;2022-09-09T14:29:39;3.05;;;1.83;;
67768;SDS011;54569;52.018;5.584;2022-09-09T14:32:04;3.45;;;1.65;;
67768;SDS011;54569;52.018;5.584;2022-09-09T14:34:30;4.32;;;2.00;;
67768;SDS011;54569;52.018;5.584;2022-09-09T14:36:57;3.83;;;1.70;;
67768;SDS011;54569;52.018;5.584;2022-09-09T14:39:23;4.45;;;2.13;;
67768;SDS011;54569;52.018;5.584;2022-09-09T14:41:49;3.58;;;2.05;;
67768;SDS011;54569;52.018;5.584;2022-09-09T14:44:15;4.65;;;2.08;;
67768;SDS011;54569;52.018;5.584;2022-09-09T14:46:44;4.15;;;1.98;;
67768;SDS011;54569;52.018;5.584;2022-09-09T14:49:09;4.38;;;2.20;;
67768;SDS011;54569;52.018;5.584;2022-09-09T14:51:36;5.13;;;1.92;;
67768;SDS011;54569;52.018;5.584;2022-09-09T14:54:02;2.47;;;1.75;;
67768;SDS011;54569;52.018;5.584;2022-09-09T14:56:29;4.88;;;2.13;;
67768;SDS011;54569;52.018;5.584;2022-09-09T14:59:00;4.45;;;2.15;;
67768;SDS011;54569;52.018;5.584;2022-09-09T15:01:27;4.90;;;1.75;;
67768;SDS011;54569;52.018;5.584;2022-09-09T15:03:58;4.38;;;1.83;;
67768;SDS011;54569;52.018;5.584;2022-09-09T15:06:26;3.63;;;1.77;;
67768;SDS011;54569;52.018;5.584;2022-09-09T15:08:54;2.22;;;1.65;;
67768;SDS011;54569;52.018;5.584;2022-09-09T15:11:26;3.03;;;1.70;;
67768;SDS011;54569;52.018;5.584;2022-09-09T15:13:53;1.70;;;1.35;;
67768;SDS011;54569;52.018;5.584;2022-09-09T15:16:24;6.45;;;1.70;;
67768;SDS011;54569;52.018;5.584;2022-09-09T15:18:52;2.83;;;1.50;;
67768;SDS011;54569;52.018;5.584;2022-09-09T15:21:20;4.20;;;1.65;;
67768;SDS011;54569;52.018;5.584;2022-09-09T15:23:47;2.15;;;1.50;;
67768;SDS011;54569;52.018;5.584;2022-09-09T15:26:14;3.95;;;1.90;;
67768;SDS011;54569;52.018;5.584;2022-09-09T15:28:41;4.20;;;2.00;;
67768;SDS011;54569;52.018;5.584;2022-09-09T15:31:15;4.00;;;1.80;;
67768;SDS011;54569;52.018;5.584;2022-09-09T15:33:51;4.80;;;1.98;;
67768;SDS011;54569;52.018;5.584;2022-09-09T15:36:19;5.90;;;1.88;;
67768;SDS011;54569;52.018;5.584;2022-09-09T15:38:56;3.92;;;1.73;;
67768;SDS011;54569;52.018;5.584;2022-09-09T15:41:47;5.38;;;1.70;;
67768;SDS011;54569;52.018;5.584;2022-09-09T15:44:14;3.13;;;1.70;;
67768;SDS011;54569;52.018;5.584;2022-09-09T15:46:41;3.55;;;1.60;;
67768;SDS011;54569;52.018;5.584;2022-09-09T15:49:20;2.30;;;1.50;;
67768;SDS011;54569;52.018;5.584;2022-09-09T15:51:53;3.28;;;1.40;;
67768;SDS011;54569;52.018;5.584;2022-09-09T15:54:24;3.35;;;1.33;;
67768;SDS011;54569;52.018;5.584;2022-09-09T15:56:52;2.15;;;1.27;;
67768;SDS011;54569;52.018;5.584;2022-09-09T15:59:21;2.50;;;1.48;;
67768;SDS011;54569;52.018;5.584;2022-09-09T16:01:50;2.28;;;1.13;;
67768;SDS011;54569;52.018;5.584;2022-09-09T16:04:17;3.83;;;1.40;;
67768;SDS011;54569;52.018;5.584;2022-09-09T16:06:51;2.53;;;1.20;;
67768;SDS011;54569;52.018;5.584;2022-09-09T16:09:23;2.35;;;1.30;;
67768;SDS011;54569;52.018;5.584;2022-09-09T16:11:50;3.03;;;1.40;;
67768;SDS011;54569;52.018;5.584;2022-09-09T16:14:18;2.17;;;1.00;;
67768;SDS011;54569;52.018;5.584;2022-09-09T16:16:43;2.33;;;1.25;;
67768;SDS011;54569;52.018;5.584;2022-09-09T16:19:10;1.95;;;1.20;;
67768;SDS011;54569;52.018;5.584;2022-09-09T16:21:42;1.27;;;1.17;;
67768;SDS011;54569;52.018;5.584;2022-09-09T16:24:10;2.28;;;0.90;;
67768;SDS011;54569;52.018;5.584;2022-09-09T16:26:38;2.38;;;1.30;;
67768;SDS011;54569;52.018;5.584;2022-09-09T16:29:05;2.05;;;1.05;;
67768;SDS011;54569;52.018;5.584;2022-09-09T16:31:31;1.23;;;1.00;;
67768;SDS011;54569;52.018;5.584;2022-09-09T16:33:57;2.65;;;1.10;;
67768;SDS011;54569;52.018;5.584;2022-09-09T16:36:24;2.28;;;1.30;;
67768;SDS011;54569;52.018;5.584;2022-09-09T16:38:52;3.92;;;1.60;;
67768;SDS011;54569;52.018;5.584;2022-09-09T16:41:20;1.48;;;0.90;;
67768;SDS011;54569;52.018;5.584;2022-09-09T16:43:46;2.03;;;1.20;;
67768;SDS011;54569;52.018;5.584;2022-09-09T16:46:16;3.78;;;1.30;;
67768;SDS011;54569;52.018;5.584;2022-09-09T16:48:43;1.45;;;1.30;;
67768;SDS011;54569;52.018;5.584;2022-09-09T16:51:12;1.60;;;1.50;;
67768;SDS011;54569;52.018;5.584;2022-09-09T16:53:40;3.78;;;1.50;;
67768;SDS011;54569;52.018;5.584;2022-09-09T16:56:08;3.03;;;1.60;;
67768;SDS011;54569;52.018;5.584;2022-09-09T16:58:49;3.70;;;1.40;;
67768;SDS011;54569;52.018;5.584;2022-09-09T17:01:16;3.15;;;1.55;;
67768;SDS011;54569;52.018;5.584;2022-09-09T17:03:41;3.50;;;1.90;;
67768;SDS011;54569;52.018;5.584;2022-09-09T17:06:14;2.85;;;1.30;;
67768;SDS011;54569;52.018;5.584;2022-09-09T17:08:40;6.38;;;1.98;;
67768;SDS011;54569;52.018;5.584;2022-09-09T17:11:17;1.50;;;1.40;;
67768;SDS011;54569;52.018;5.584;2022-09-09T17:13:47;4.10;;;1.70;;
67768;SDS011;54569;52.018;5.584;2022-09-09T17:16:14;2.03;;;1.75;;
67768;SDS011;54569;52.018;5.584;2022-09-09T17:18:41;3.50;;;1.80;;
67768;SDS011;54569;52.018;5.584;2022-09-09T17:21:08;5.20;;;2.00;;
67768;SDS011;54569;52.018;5.584;2022-09-09T17:23:36;3.42;;;2.08;;
67768;SDS011;54569;52.018;5.584;2022-09-09T17:26:04;3.72;;;1.63;;
67768;SDS011;54569;52.018;5.584;2022-09-09T17:28:32;3.25;;;1.60;;
67768;SDS011;54569;52.018;5.584;2022-09-09T17:30:59;2.22;;;1.27;;
67768;SDS011;54569;52.018;5.584;2022-09-09T17:33:30;2.90;;;1.85;;
67768;SDS011;54569;52.018;5.584;2022-09-09T17:35:59;6.18;;;2.00;;
67768;SDS011;54569;52.018;5.584;2022-09-09T17:38:27;3.50;;;2.05;;
67768;SDS011;54569;52.018;5.584;2022-09-09T17:43:41;4.40;;;3.00;;
67768;SDS011;54569;52.018;5.584;2022-09-09T17:46:12;4.15;;;2.40;;